createdAt,value
2017-10-30T00:01:10.650Z,99.90
2017-10-30T00:03:45.722Z,99.90
2017-10-30T00:06:15.391Z,99.90
2017-10-30T00:08:50.659Z,99.90
2017-10-30T00:11:20.317Z,99.90
2017-10-30T00:13:50.595Z,99.90
2017-10-30T00:16:26.258Z,99.90
2017-10-30T00:18:55.990Z,99.90
2017-10-30T00:21:26.774Z,99.90
2017-10-30T00:23:56.481Z,99.90
2017-10-30T00:26:32.856Z,99.90
2017-10-30T00:29:02.433Z,99.90
2017-10-30T00:31:43.911Z,99.90
2017-10-30T00:37:02.033Z,99.90
2017-10-30T00:39:41.814Z,99.90
2017-10-30T00:42:11.476Z,99.90
2017-10-30T00:44:41.171Z,99.90
2017-10-30T00:47:10.871Z,99.90
2017-10-30T00:52:15.126Z,99.90
2017-10-30T00:54:48.156Z,99.90
2017-10-30T00:57:23.246Z,99.90
2017-10-30T00:59:53.922Z,99.90
2017-10-30T01:02:24.721Z,99.90
2017-10-30T01:04:58.451Z,99.90
2017-10-30T01:10:38.059Z,99.90
2017-10-30T01:13:07.742Z,99.90
2017-10-30T01:15:41.423Z,99.90
2017-10-30T01:18:14.899Z,99.90
2017-10-30T01:20:45.834Z,99.90
2017-10-30T01:23:19.646Z,99.90
2017-10-30T01:26:03.294Z,99.90
2017-10-30T01:28:32.946Z,99.90
2017-10-30T01:31:03.421Z,99.90
2017-10-30T01:33:33.528Z,99.90
2017-10-30T01:36:03.050Z,99.90
2017-10-30T01:38:32.704Z,99.90
2017-10-30T01:41:05.475Z,99.90
2017-10-30T01:43:37.406Z,99.90
2017-10-30T01:46:20.296Z,99.90
2017-10-30T01:48:53.413Z,99.90
2017-10-30T01:51:25.956Z,99.90
2017-10-30T01:53:56.894Z,99.90
2017-10-30T01:56:28.256Z,99.90
2017-10-30T01:58:57.059Z,99.90
2017-10-30T02:01:26.207Z,99.90
2017-10-30T02:03:55.707Z,99.90
2017-10-30T02:06:31.717Z,99.90
2017-10-30T02:09:02.274Z,99.90
2017-10-30T02:11:33.988Z,99.90
2017-10-30T02:14:07.943Z,99.90
2017-10-30T02:16:40.785Z,99.90
2017-10-30T02:19:26.228Z,99.90
2017-10-30T02:21:55.743Z,99.90
2017-10-30T02:24:24.718Z,99.90
2017-10-30T02:27:00.103Z,99.90
2017-10-30T02:29:32.636Z,99.90
2017-10-30T02:32:05.638Z,99.90
2017-10-30T02:34:35.387Z,99.90
2017-10-30T02:37:10.540Z,99.90
2017-10-30T02:39:39.507Z,99.90
2017-10-30T02:42:09.114Z,99.90
2017-10-30T02:44:39.247Z,99.90
2017-10-30T02:47:18.954Z,99.90
2017-10-30T02:49:55.674Z,99.90
2017-10-30T02:52:24.444Z,99.90
2017-10-30T02:54:54.672Z,99.90
2017-10-30T02:57:48.374Z,99.90
2017-10-30T03:00:17.149Z,99.90
2017-10-30T03:02:46.281Z,99.90
2017-10-30T03:05:15.427Z,99.90
2017-10-30T03:07:50.370Z,99.90
2017-10-30T03:10:20.110Z,99.90
2017-10-30T03:12:49.230Z,99.90
2017-10-30T03:15:18.814Z,99.90
2017-10-30T03:17:48.693Z,99.90
2017-10-30T03:20:24.824Z,99.90
2017-10-30T03:26:04.201Z,99.90
2017-10-30T03:28:33.934Z,99.90
2017-10-30T03:31:09.504Z,99.90
2017-10-30T03:33:41.515Z,99.90
2017-10-30T03:36:11.306Z,99.90
2017-10-30T03:38:40.614Z,99.90
2017-10-30T03:41:10.303Z,99.90
2017-10-30T03:43:46.183Z,99.90
2017-10-30T03:46:18.209Z,99.90
2017-10-30T03:48:51.712Z,99.90
2017-10-30T03:51:22.220Z,99.90
2017-10-30T03:53:51.727Z,99.90
2017-10-30T03:56:21.395Z,99.90
2017-10-30T03:58:58.187Z,99.90
2017-10-30T04:01:27.304Z,99.90
2017-10-30T04:03:56.966Z,99.90
2017-10-30T04:06:37.618Z,99.90
2017-10-30T04:09:19.849Z,99.90
2017-10-30T04:11:50.303Z,99.90
2017-10-30T04:14:20.727Z,99.90
2017-10-30T04:16:50.570Z,99.90
2017-10-30T04:19:20.631Z,99.90
2017-10-30T04:21:51.454Z,99.90
2017-10-30T04:24:24.362Z,99.90
2017-10-30T04:26:57.279Z,99.90
2017-10-30T04:29:32.633Z,99.90
2017-10-30T04:32:06.937Z,99.90
2017-10-30T04:34:37.351Z,99.90
2017-10-30T04:37:07.053Z,99.90
2017-10-30T04:39:37.493Z,99.90
2017-10-30T04:42:07.147Z,99.90
2017-10-30T04:44:36.835Z,99.90
2017-10-30T04:47:16.250Z,99.90
2017-10-30T04:49:47.618Z,99.90
2017-10-30T04:52:27.764Z,99.90
2017-10-30T04:54:57.212Z,99.90
2017-10-30T04:57:27.679Z,99.90
2017-10-30T05:02:57.945Z,99.90
2017-10-30T05:05:27.619Z,99.90
2017-10-30T05:07:57.347Z,99.90
2017-10-30T05:10:28.703Z,99.90
2017-10-30T05:12:58.357Z,99.90
2017-10-30T05:15:43.131Z,99.90
2017-10-30T05:18:12.461Z,99.90
2017-10-30T05:20:47.477Z,99.90
2017-10-30T05:23:17.937Z,99.90
2017-10-30T05:25:47.651Z,99.90
2017-10-30T05:28:17.306Z,99.90
2017-10-30T05:31:03.255Z,99.90
2017-10-30T05:33:39.479Z,99.90
2017-10-30T05:39:09.488Z,99.90
2017-10-30T05:41:39.151Z,99.90
2017-10-30T05:44:08.826Z,99.90
2017-10-30T05:46:39.819Z,99.90
2017-10-30T05:49:09.478Z,99.90
2017-10-30T05:51:40.168Z,99.90
2017-10-30T05:59:48.638Z,99.90
2017-10-30T06:02:35.921Z,99.90
2017-10-30T06:05:10.006Z,99.90
2017-10-30T06:07:39.663Z,99.90
2017-10-30T06:10:09.362Z,99.90
2017-10-30T06:12:45.422Z,99.90
2017-10-30T06:15:15.078Z,99.90
2017-10-30T06:17:44.783Z,99.90
2017-10-30T06:20:14.467Z,99.90
2017-10-30T06:22:44.460Z,99.90
2017-10-30T06:25:17.138Z,99.90
2017-10-30T06:27:46.986Z,99.90
2017-10-30T06:30:18.203Z,99.90
2017-10-30T06:32:50.846Z,99.90
2017-10-30T06:35:29.865Z,99.90
2017-10-30T06:38:00.079Z,99.90
2017-10-30T06:40:30.520Z,99.90
2017-10-30T06:43:01.403Z,99.90
2017-10-30T06:45:35.879Z,99.90
2017-10-30T06:50:46.595Z,99.90
2017-10-30T06:53:20.315Z,99.90
2017-10-30T06:55:58.455Z,99.90
2017-10-30T06:58:50.984Z,99.90
2017-10-30T07:01:27.743Z,99.90
2017-10-30T07:03:57.542Z,99.90
2017-10-30T07:06:27.009Z,99.90
2017-10-30T07:08:58.089Z,99.90
2017-10-30T07:11:28.010Z,99.90
2017-10-30T07:14:00.619Z,99.90
2017-10-30T07:16:33.613Z,99.90
2017-10-30T07:21:51.979Z,99.90
2017-10-30T07:24:22.083Z,99.90
2017-10-30T07:26:54.910Z,99.90
2017-10-30T07:29:24.622Z,99.90
2017-10-30T07:31:54.430Z,99.90
2017-10-30T07:34:24.518Z,99.90
2017-10-30T07:36:54.218Z,99.90
2017-10-30T07:39:34.985Z,99.90
2017-10-30T07:42:10.833Z,99.90
2017-10-30T07:44:40.806Z,99.90
2017-10-30T07:47:10.622Z,99.90
2017-10-30T07:49:43.891Z,99.90
2017-10-30T07:52:14.365Z,99.90
2017-10-30T07:54:47.674Z,99.90
2017-10-30T07:57:17.599Z,99.90
2017-10-30T07:59:46.362Z,99.90
2017-10-30T08:02:36.424Z,99.90
2017-10-30T08:05:24.963Z,99.90
2017-10-30T08:07:53.974Z,99.90
2017-10-30T08:10:35.567Z,99.90
2017-10-30T08:13:05.006Z,99.90
2017-10-30T08:15:34.806Z,99.90
2017-10-30T08:18:04.498Z,99.90
2017-10-30T08:20:35.658Z,99.90
2017-10-30T08:23:06.262Z,99.90
2017-10-30T08:25:51.023Z,99.90
2017-10-30T08:28:20.402Z,99.90
2017-10-30T08:30:49.175Z,99.90
2017-10-30T08:35:56.367Z,99.90
2017-10-30T08:38:25.339Z,99.90
2017-10-30T08:41:04.370Z,99.90
2017-10-30T08:43:33.209Z,99.90
2017-10-30T08:46:05.208Z,99.90
2017-10-30T08:48:34.214Z,99.90
2017-10-30T08:51:02.983Z,99.90
2017-10-30T08:53:45.975Z,99.90
2017-10-30T08:56:15.151Z,99.90
2017-10-30T08:58:44.258Z,99.90
2017-10-30T09:04:20.514Z,99.90
2017-10-30T09:09:26.420Z,99.90
2017-10-30T09:11:59.995Z,99.90
2017-10-30T09:14:31.158Z,99.90
2017-10-30T09:17:00.728Z,99.90
2017-10-30T09:22:22.089Z,99.90
2017-10-30T09:24:54.115Z,99.90
2017-10-30T09:27:22.878Z,99.90
2017-10-30T09:29:51.880Z,99.90
2017-10-30T09:32:20.654Z,99.90
2017-10-30T09:34:59.102Z,99.90
2017-10-30T09:37:28.441Z,99.90
2017-10-30T09:39:57.422Z,99.90
2017-10-30T09:42:27.887Z,99.90
2017-10-30T09:45:08.138Z,99.90
2017-10-30T09:47:37.862Z,99.90
2017-10-30T09:50:07.793Z,99.90
2017-10-30T09:55:19.903Z,99.90
2017-10-30T09:57:48.887Z,99.90
2017-10-30T10:00:28.627Z,99.90
2017-10-30T10:02:57.403Z,99.90
2017-10-30T10:05:26.172Z,99.90
2017-10-30T10:08:11.548Z,99.90
2017-10-30T10:10:47.645Z,99.90
2017-10-30T10:13:16.982Z,99.90
2017-10-30T10:15:45.779Z,99.90
2017-10-30T10:18:14.744Z,99.90
2017-10-30T10:20:44.875Z,99.90
2017-10-30T10:23:14.780Z,99.90
2017-10-30T10:25:47.383Z,99.90
2017-10-30T10:28:22.686Z,99.90
2017-10-30T10:31:06.768Z,99.90
2017-10-30T10:33:35.728Z,99.90
2017-10-30T10:36:04.698Z,99.90
2017-10-30T10:38:43.607Z,96.50
2017-10-30T10:41:12.584Z,96.30
2017-10-30T10:43:42.114Z,97.40
2017-10-30T10:46:16.552Z,95.40
2017-10-30T10:48:58.238Z,95.50
2017-10-30T10:51:27.784Z,92.60
2017-10-30T10:53:57.144Z,77.30
2017-10-30T10:56:39.096Z,75.90
2017-10-30T10:59:13.898Z,70.60
2017-10-30T11:01:43.560Z,71.10
2017-10-30T11:04:20.052Z,71.70
2017-10-30T11:06:49.506Z,71.80
2017-10-30T11:09:18.844Z,70.10
2017-10-30T11:11:49.342Z,68.60
2017-10-30T11:17:22.839Z,67.40
2017-10-30T11:20:08.669Z,68.80
2017-10-30T11:22:38.399Z,68.10
2017-10-30T11:25:08.118Z,64.30
2017-10-30T11:27:37.252Z,60.30
2017-10-30T11:30:07.862Z,51.90
2017-10-30T11:32:38.111Z,49.90
2017-10-30T11:35:13.230Z,49.30
2017-10-30T11:37:43.671Z,46.50
2017-10-30T11:40:25.398Z,44.60
2017-10-30T11:42:55.051Z,43.70
2017-10-30T11:45:30.322Z,42.30
2017-10-30T11:47:59.978Z,41.60
2017-10-30T11:53:38.826Z,40.90
2017-10-30T11:56:08.293Z,41.50
2017-10-30T11:58:37.341Z,39.80
2017-10-30T12:01:06.743Z,40.60
2017-10-30T12:03:43.469Z,40.50
2017-10-30T12:06:13.682Z,39.10
2017-10-30T12:08:47.052Z,38.30
2017-10-30T12:11:29.791Z,39.50
2017-10-30T12:14:02.884Z,42.20
2017-10-30T12:16:33.138Z,42.70
2017-10-30T12:19:03.270Z,42.80
2017-10-30T12:21:32.671Z,43.30
2017-10-30T12:24:04.338Z,44.90
2017-10-30T12:26:40.799Z,48.60
2017-10-30T12:29:18.355Z,50.70
2017-10-30T12:31:48.019Z,52.60
2017-10-30T12:34:25.922Z,53.90
2017-10-30T12:37:02.851Z,55.40
2017-10-30T12:39:36.294Z,57.10
2017-10-30T12:42:06.745Z,62.70
2017-10-30T12:44:45.332Z,74.80
2017-10-30T12:47:19.606Z,96.10
2017-10-30T12:49:49.486Z,98.60
2017-10-30T12:52:19.930Z,99.90
2017-10-30T12:54:49.627Z,99.90
2017-10-30T12:57:18.949Z,98.80
2017-10-30T12:59:55.782Z,99.90
2017-10-30T13:02:25.868Z,99.30
2017-10-30T13:04:55.586Z,99.30
2017-10-30T13:07:24.913Z,99.90
2017-10-30T13:09:55.580Z,94.90
2017-10-30T13:12:25.271Z,96.40
2017-10-30T13:14:58.440Z,97.50
2017-10-30T13:17:28.134Z,96.50
2017-10-30T13:19:58.619Z,87.20
2017-10-30T13:22:27.634Z,87.20
2017-10-30T13:24:57.302Z,88.50
2017-10-30T13:27:32.623Z,88.00
2017-10-30T13:30:03.439Z,82.00
2017-10-30T13:32:34.083Z,77.00
2017-10-30T13:35:03.762Z,77.40
2017-10-30T13:37:33.469Z,78.10
2017-10-30T13:40:03.612Z,73.50
2017-10-30T13:42:34.420Z,71.00
2017-10-30T13:45:04.144Z,71.50
2017-10-30T13:47:33.815Z,72.20
2017-10-30T13:50:04.504Z,71.10
2017-10-30T13:52:39.020Z,69.50
2017-10-30T13:55:10.795Z,65.00
2017-10-30T13:57:53.287Z,60.20
2017-10-30T14:00:23.107Z,58.00
2017-10-30T14:02:52.804Z,57.00
2017-10-30T14:05:29.257Z,51.70
2017-10-30T14:07:59.413Z,51.80
2017-10-30T14:10:28.857Z,52.00
2017-10-30T14:12:58.338Z,54.30
2017-10-30T14:15:29.097Z,55.80
2017-10-30T14:18:01.679Z,58.90
2017-10-30T14:20:43.631Z,59.80
2017-10-30T14:23:13.291Z,65.30
2017-10-30T14:25:42.980Z,73.80
2017-10-30T14:31:19.443Z,89.10
2017-10-30T14:33:49.130Z,92.10
2017-10-30T14:36:27.504Z,91.70
2017-10-30T14:38:56.294Z,91.60
2017-10-30T14:41:26.176Z,94.70
2017-10-30T14:43:55.289Z,93.10
2017-10-30T14:46:48.584Z,93.90
2017-10-30T14:49:18.662Z,91.40
2017-10-30T14:51:47.687Z,94.30
2017-10-30T14:54:17.562Z,97.00
2017-10-30T14:56:48.239Z,96.50
2017-10-30T14:59:17.212Z,95.60
2017-10-30T15:01:47.020Z,95.00
2017-10-30T15:04:16.002Z,94.70
2017-10-30T15:07:04.554Z,96.40
2017-10-30T15:12:28.665Z,96.50
2017-10-30T15:15:09.266Z,95.10
2017-10-30T15:17:38.926Z,96.10
2017-10-30T15:20:13.878Z,94.30
2017-10-30T15:22:42.801Z,92.90
2017-10-30T15:25:27.634Z,92.40
2017-10-30T15:30:51.478Z,94.60
2017-10-30T15:33:20.826Z,94.60
2017-10-30T15:36:05.248Z,91.20
2017-10-30T15:38:37.763Z,92.50
2017-10-30T15:41:07.603Z,91.80
2017-10-30T15:43:36.559Z,92.50
2017-10-30T15:46:06.231Z,91.20
2017-10-30T15:48:35.917Z,91.10
2017-10-30T15:53:51.818Z,91.80
2017-10-30T15:56:21.926Z,91.70
2017-10-30T16:01:55.547Z,92.50
2017-10-30T16:04:25.223Z,92.50
2017-10-30T16:07:01.478Z,93.50
2017-10-30T16:09:31.142Z,93.80
2017-10-30T16:12:02.074Z,96.40
2017-10-30T16:14:41.972Z,95.10
2017-10-30T16:17:11.634Z,95.00
2017-10-30T16:19:41.918Z,96.20
2017-10-30T16:22:12.160Z,94.90
2017-10-30T16:24:42.992Z,94.50
2017-10-30T16:27:30.617Z,93.40
2017-10-30T16:30:00.270Z,92.00
2017-10-30T16:32:35.790Z,93.80
2017-10-30T16:35:05.476Z,92.60
2017-10-30T16:37:34.959Z,93.50
2017-10-30T16:40:04.335Z,92.20
2017-10-30T16:42:47.714Z,92.10
2017-10-30T16:45:16.879Z,91.90
2017-10-30T16:47:47.391Z,89.50
2017-10-30T16:50:18.069Z,89.00
2017-10-30T16:52:48.486Z,89.30
2017-10-30T16:55:28.498Z,90.10
2017-10-30T16:58:01.987Z,90.70
2017-10-30T17:00:31.760Z,90.80
2017-10-30T17:03:01.404Z,91.00
2017-10-30T17:05:31.095Z,92.20
2017-10-30T17:08:07.714Z,93.10
2017-10-30T17:10:37.401Z,94.00
2017-10-30T17:13:06.432Z,94.20
2017-10-30T17:15:51.294Z,97.80
2017-10-30T17:18:20.988Z,98.90
2017-10-30T17:20:51.431Z,99.90
2017-10-30T17:23:21.110Z,99.90
2017-10-30T17:25:50.767Z,99.90
2017-10-30T17:28:21.367Z,99.90
2017-10-30T17:30:57.962Z,99.90
2017-10-30T17:33:27.665Z,99.90
2017-10-30T17:35:58.097Z,99.90
2017-10-30T17:38:31.666Z,99.90
2017-10-30T17:41:02.523Z,99.90
2017-10-30T17:43:44.739Z,99.90
2017-10-30T17:46:25.258Z,99.90
2017-10-30T17:48:54.953Z,99.90
2017-10-30T17:51:24.751Z,99.90
2017-10-30T17:53:54.539Z,99.90
2017-10-30T17:56:28.409Z,99.90
2017-10-30T17:58:58.866Z,99.90
2017-10-30T18:01:28.585Z,99.90
2017-10-30T18:06:33.958Z,99.90
2017-10-30T18:09:03.277Z,99.90
2017-10-30T18:11:46.269Z,99.90
2017-10-30T18:14:26.374Z,99.90
2017-10-30T18:16:56.083Z,99.90
2017-10-30T18:19:25.753Z,99.90
2017-10-30T18:24:51.625Z,99.90
2017-10-30T18:27:21.322Z,99.90
2017-10-30T18:30:02.784Z,99.90
2017-10-30T18:32:32.483Z,99.90
2017-10-30T18:35:03.107Z,99.90
2017-10-30T18:37:32.793Z,99.90
2017-10-30T18:40:03.495Z,99.90
2017-10-30T18:42:34.303Z,99.90
2017-10-30T18:45:08.118Z,99.90
2017-10-30T18:47:42.528Z,99.90
2017-10-30T18:50:19.574Z,99.90
2017-10-30T18:52:49.237Z,99.90
2017-10-30T18:55:22.618Z,99.90
2017-10-30T18:58:09.999Z,99.90
2017-10-30T19:00:58.492Z,99.90
2017-10-30T19:03:32.862Z,99.90
2017-10-30T19:06:15.424Z,99.90
2017-10-30T19:11:45.206Z,99.90
2017-10-30T19:14:22.212Z,99.90
2017-10-30T19:16:51.921Z,99.90
2017-10-30T19:19:22.154Z,99.90
2017-10-30T19:21:51.848Z,99.90
2017-10-30T19:24:34.861Z,99.90
2017-10-30T19:27:04.978Z,99.90
2017-10-30T19:29:38.851Z,99.90
2017-10-30T19:32:09.108Z,99.90
2017-10-30T19:34:48.610Z,99.90
2017-10-30T19:37:19.075Z,99.90
2017-10-30T19:39:48.732Z,99.90
2017-10-30T19:42:18.435Z,99.90
2017-10-30T19:44:48.874Z,99.90
2017-10-30T19:47:22.052Z,99.90
2017-10-30T19:50:03.420Z,99.90
2017-10-30T19:52:33.103Z,99.90
2017-10-30T19:55:02.778Z,99.90
2017-10-30T19:57:44.082Z,99.90
2017-10-30T20:00:13.603Z,99.90
2017-10-30T20:02:43.120Z,99.90
2017-10-30T20:05:19.311Z,99.90
2017-10-30T20:07:53.794Z,99.90
2017-10-30T20:10:28.917Z,99.90
2017-10-30T20:12:59.335Z,99.90
2017-10-30T20:15:29.059Z,99.90
2017-10-30T20:17:58.720Z,99.90
2017-10-30T20:20:28.470Z,99.90
2017-10-30T20:22:58.117Z,99.90
2017-10-30T20:25:33.623Z,99.90
2017-10-30T20:28:07.879Z,99.90
2017-10-30T20:30:37.594Z,99.90
2017-10-30T20:33:08.762Z,99.90
2017-10-30T20:35:38.391Z,99.90
2017-10-30T20:38:08.106Z,99.90
2017-10-30T20:40:48.745Z,99.90
2017-10-30T20:43:19.202Z,99.90
2017-10-30T20:45:48.895Z,99.90
2017-10-30T20:48:19.334Z,99.90
2017-10-30T20:50:50.159Z,99.90
2017-10-30T20:53:22.502Z,99.90
2017-10-30T20:56:05.073Z,99.90
2017-10-30T20:58:36.143Z,99.90
2017-10-30T21:01:09.258Z,99.90
2017-10-30T21:03:38.922Z,99.90
2017-10-30T21:06:09.611Z,99.90
2017-10-30T21:08:40.483Z,99.90
2017-10-30T21:11:12.190Z,99.90
2017-10-30T21:13:56.348Z,99.90
2017-10-30T21:16:26.055Z,99.90
2017-10-30T21:19:01.612Z,99.90
2017-10-30T21:21:35.129Z,99.90
2017-10-30T21:24:04.788Z,99.90
2017-10-30T21:29:37.023Z,99.90
2017-10-30T21:32:17.650Z,99.90
2017-10-30T21:34:47.387Z,99.90
2017-10-30T21:37:17.049Z,99.90
2017-10-30T21:39:55.330Z,99.90
2017-10-30T21:42:25.758Z,99.90
2017-10-30T21:44:56.314Z,99.90
2017-10-30T21:47:25.972Z,99.90
2017-10-30T21:49:55.655Z,99.90
2017-10-30T21:52:28.724Z,99.90
2017-10-30T21:55:04.854Z,99.90
2017-10-30T22:00:16.542Z,99.90
2017-10-30T22:02:49.869Z,99.90
2017-10-30T22:05:19.546Z,99.90
2017-10-30T22:07:49.215Z,99.90
2017-10-30T22:12:55.475Z,99.90
2017-10-30T22:15:25.178Z,99.90
2017-10-30T22:20:39.426Z,99.90
2017-10-30T22:23:09.854Z,99.90
2017-10-30T22:25:40.330Z,99.90
2017-10-30T22:28:10.751Z,99.90
2017-10-30T22:30:40.450Z,99.90
2017-10-30T22:33:14.745Z,99.90
2017-10-30T22:35:44.465Z,99.90
2017-10-30T22:38:29.321Z,99.90
2017-10-30T22:40:59.015Z,99.90
2017-10-30T22:43:28.979Z,99.90
2017-10-30T22:45:58.670Z,99.90
2017-10-30T22:48:28.334Z,99.90
2017-10-30T22:53:39.169Z,99.90
2017-10-30T22:56:09.036Z,99.90
2017-10-30T22:58:38.839Z,99.90
2017-10-30T23:01:08.686Z,99.90
2017-10-30T23:03:38.902Z,99.90
2017-10-30T23:06:11.546Z,99.90
2017-10-30T23:08:41.307Z,99.90
2017-10-30T23:11:16.503Z,99.90
2017-10-30T23:13:56.915Z,99.90
2017-10-30T23:16:27.334Z,99.90
2017-10-30T23:18:57.026Z,99.90
2017-10-30T23:21:26.733Z,99.90
2017-10-30T23:23:59.348Z,99.90
2017-10-30T23:26:31.918Z,99.90
2017-10-30T23:29:02.759Z,99.90
2017-10-30T23:31:44.362Z,99.90
2017-10-30T23:34:13.966Z,99.90
2017-10-30T23:36:49.718Z,99.90
2017-10-30T23:39:33.178Z,99.90
2017-10-30T23:44:46.630Z,99.90
2017-10-30T23:47:22.846Z,99.90
2017-10-30T23:49:53.305Z,99.90
2017-10-30T23:52:39.145Z,99.90
2017-10-30T23:55:08.942Z,99.90
2017-10-30T23:57:38.605Z,99.90
